createdAt,value
2023-04-01T00:00:12.875Z,7.65
2023-04-01T00:02:42.922Z,9.20
2023-04-01T00:05:12.980Z,8.45
2023-04-01T00:07:42.762Z,8.50
2023-04-01T00:10:14.891Z,9.02
2023-04-01T00:12:44.177Z,9.88
2023-04-01T00:15:14.485Z,8.95
2023-04-01T00:17:44.909Z,6.93
2023-04-01T00:20:15.466Z,7.78
2023-04-01T00:22:45.672Z,7.60
2023-04-01T00:25:16.509Z,7.75
2023-04-01T00:27:45.441Z,7.57
2023-04-01T00:30:14.762Z,8.43
2023-04-01T00:32:43.704Z,8.32
2023-04-01T00:35:13.610Z,8.93
2023-04-01T00:37:42.565Z,9.95
2023-04-01T00:40:27.525Z,10.55
2023-04-01T00:42:57.003Z,8.73
2023-04-01T00:45:36.246Z,9.05
2023-04-01T00:48:09.655Z,7.85
2023-04-01T00:50:40.709Z,7.47
2023-04-01T00:53:10.770Z,7.85
2023-04-01T00:55:46.145Z,8.57
2023-04-01T01:00:48.755Z,7.97
2023-04-01T01:03:17.876Z,8.90
2023-04-01T01:06:10.037Z,8.48
2023-04-01T01:09:00.566Z,8.82
2023-04-01T01:11:43.816Z,9.50
2023-04-01T01:14:36.977Z,10.23
2023-04-01T01:17:16.188Z,8.45
2023-04-01T01:20:12.806Z,7.03
2023-04-01T01:23:05.709Z,6.55
2023-04-01T01:25:44.038Z,6.80
2023-04-01T01:28:37.611Z,6.72
2023-04-01T01:31:15.166Z,6.75
2023-04-01T01:34:09.871Z,6.82
2023-04-01T01:36:43.705Z,7.15
2023-04-01T01:39:16.149Z,7.57
2023-04-01T01:41:50.537Z,7.13
2023-04-01T01:44:21.235Z,6.93
2023-04-01T01:46:50.821Z,8.05
2023-04-01T01:49:21.289Z,7.95
2023-04-01T01:51:51.641Z,8.38
2023-04-01T01:54:21.057Z,8.20
2023-04-01T01:56:55.691Z,8.07
2023-04-01T01:59:27.074Z,8.10
2023-04-01T02:02:00.077Z,7.85
2023-04-01T02:04:29.590Z,8.77
2023-04-01T02:07:04.804Z,8.40
2023-04-01T02:09:35.327Z,9.02
2023-04-01T02:12:08.320Z,9.18
2023-04-01T02:14:45.813Z,8.40
2023-04-01T02:17:19.247Z,7.05
2023-04-01T02:19:52.013Z,7.72
2023-04-01T02:22:26.622Z,7.72
2023-04-01T02:25:00.429Z,7.72
2023-04-01T02:27:30.608Z,7.80
2023-04-01T02:30:00.545Z,9.15
2023-04-01T02:32:31.874Z,7.65
2023-04-01T02:35:04.383Z,8.05
2023-04-01T02:37:36.275Z,7.75
2023-04-01T02:40:08.708Z,8.38
2023-04-01T02:42:37.893Z,8.90
2023-04-01T02:45:08.135Z,9.57
2023-04-01T02:47:37.247Z,8.80
2023-04-01T02:50:07.703Z,8.35
2023-04-01T02:52:38.537Z,8.57
2023-04-01T02:55:08.964Z,8.82
2023-04-01T02:57:38.199Z,8.50
2023-04-01T03:00:12.218Z,8.77
2023-04-01T03:02:41.568Z,8.00
2023-04-01T03:05:11.244Z,8.18
2023-04-01T03:07:41.657Z,8.45
2023-04-01T03:10:11.673Z,9.43
2023-04-01T03:12:41.695Z,8.15
2023-04-01T03:15:13.240Z,8.30
2023-04-01T03:17:43.237Z,8.25
2023-04-01T03:20:13.712Z,7.65
2023-04-01T03:22:44.025Z,8.73
2023-04-01T03:25:13.268Z,8.38
2023-04-01T03:27:42.475Z,7.68
2023-04-01T03:30:12.349Z,7.47
2023-04-01T03:32:50.206Z,7.85
2023-04-01T03:35:19.567Z,7.25
2023-04-01T03:37:50.085Z,7.97
2023-04-01T03:40:19.244Z,7.60
2023-04-01T03:42:48.706Z,7.03
2023-04-01T03:45:17.782Z,7.78
2023-04-01T03:47:46.809Z,7.85
2023-04-01T03:50:15.739Z,7.65
2023-04-01T03:52:45.308Z,6.93
2023-04-01T03:55:16.608Z,7.20
2023-04-01T03:57:46.102Z,8.02
2023-04-01T04:00:21.253Z,6.95
2023-04-01T04:05:31.025Z,6.63
2023-04-01T04:08:00.697Z,7.25
2023-04-01T04:10:31.121Z,7.57
2023-04-01T04:13:00.227Z,8.95
2023-04-01T04:15:32.173Z,8.90
2023-04-01T04:18:01.493Z,7.90
2023-04-01T04:20:30.506Z,8.32
2023-04-01T04:22:59.495Z,8.57
2023-04-01T04:25:28.466Z,8.88
2023-04-01T04:27:58.898Z,9.75
2023-04-01T04:30:27.823Z,7.07
2023-04-01T04:32:56.827Z,8.55
2023-04-01T04:35:25.932Z,9.00
2023-04-01T04:37:54.996Z,9.63
2023-04-01T04:40:24.079Z,9.73
2023-04-01T04:42:53.040Z,8.65
2023-04-01T04:45:23.803Z,8.98
2023-04-01T04:47:57.388Z,9.18
2023-04-01T04:50:27.230Z,9.10
2023-04-01T04:52:56.301Z,8.82
2023-04-01T04:55:25.645Z,8.35
2023-04-01T04:58:13.459Z,8.57
2023-04-01T05:00:47.101Z,8.55
2023-04-01T05:03:23.307Z,8.98
2023-04-01T05:05:54.997Z,9.45
2023-04-01T05:08:25.353Z,9.57
2023-04-01T05:10:54.281Z,8.75
2023-04-01T05:13:23.385Z,9.20
2023-04-01T05:15:54.328Z,8.48
2023-04-01T05:18:23.856Z,8.77
2023-04-01T05:20:54.674Z,8.50
2023-04-01T05:23:24.695Z,9.15
2023-04-01T05:25:54.499Z,10.00
2023-04-01T05:28:24.410Z,9.43
2023-04-01T05:30:55.088Z,8.57
2023-04-01T05:33:26.995Z,8.98
2023-04-01T05:35:56.461Z,9.27
2023-04-01T05:38:25.452Z,8.25
2023-04-01T05:41:01.319Z,9.48
2023-04-01T05:43:32.194Z,9.35
2023-04-01T05:46:11.192Z,10.02
2023-04-01T05:48:49.933Z,10.07
2023-04-01T05:51:19.131Z,8.65
2023-04-01T05:53:48.479Z,10.10
2023-04-01T05:56:17.623Z,9.27
2023-04-01T05:58:54.444Z,9.18
2023-04-01T06:01:27.145Z,9.88
2023-04-01T06:03:56.536Z,9.35
2023-04-01T06:06:28.004Z,10.00
2023-04-01T06:09:18.511Z,9.82
2023-04-01T06:12:33.968Z,9.27
2023-04-01T06:15:16.767Z,8.75
2023-04-01T06:18:01.678Z,8.85
2023-04-01T06:20:40.545Z,10.35
2023-04-01T06:23:23.356Z,10.27
2023-04-01T06:26:05.273Z,10.52
2023-04-01T06:29:09.782Z,10.40
2023-04-01T06:31:54.076Z,10.32
2023-04-01T06:34:56.725Z,10.35
2023-04-01T06:37:42.500Z,10.15
2023-04-01T06:40:40.325Z,10.75
2023-04-01T06:43:23.025Z,10.95
2023-04-01T06:46:20.556Z,9.85
2023-04-01T06:49:30.584Z,10.48
2023-04-01T06:52:26.707Z,9.68
2023-04-01T06:55:27.272Z,8.13
2023-04-01T06:58:23.496Z,9.48
2023-04-01T07:00:56.552Z,9.90
2023-04-01T07:03:34.240Z,10.07
2023-04-01T07:06:06.878Z,10.32
2023-04-01T07:08:46.302Z,9.90
2023-04-01T07:11:24.830Z,10.88
2023-04-01T07:14:32.840Z,10.38
2023-04-01T07:17:08.525Z,10.40
2023-04-01T07:19:43.528Z,10.25
2023-04-01T07:22:29.165Z,11.02
2023-04-01T07:25:14.621Z,10.25
2023-04-01T07:27:46.087Z,10.75
2023-04-01T07:30:18.017Z,9.95
2023-04-01T07:32:54.745Z,11.25
2023-04-01T07:35:29.930Z,10.57
2023-04-01T07:38:13.535Z,10.32
2023-04-01T07:40:50.939Z,10.15
2023-04-01T07:43:33.297Z,10.98
2023-04-01T07:46:41.985Z,10.80
2023-04-01T07:49:17.409Z,10.38
2023-04-01T07:51:59.933Z,10.35
2023-04-01T07:54:40.595Z,9.82
2023-04-01T07:57:16.920Z,9.70
2023-04-01T08:00:04.309Z,10.40
2023-04-01T08:03:12.410Z,11.73
2023-04-01T08:05:49.691Z,10.23
2023-04-01T08:08:27.336Z,9.60
2023-04-01T08:11:31.357Z,9.75
2023-04-01T08:14:27.526Z,10.52
2023-04-01T08:17:22.866Z,10.25
2023-04-01T08:20:03.612Z,9.68
2023-04-01T08:22:42.708Z,10.43
2023-04-01T08:25:40.051Z,9.43
2023-04-01T08:28:18.502Z,10.50
2023-04-01T08:30:54.724Z,10.20
2023-04-01T08:33:27.803Z,10.32
2023-04-01T08:36:10.620Z,10.35
2023-04-01T08:38:45.864Z,10.73
2023-04-01T08:44:44.275Z,9.07
2023-04-01T08:47:33.231Z,9.10
2023-04-01T08:50:32.814Z,9.00
2023-04-01T08:53:32.812Z,8.93
2023-04-01T08:56:12.676Z,8.75
2023-04-01T08:59:14.483Z,9.30
2023-04-01T09:02:03.513Z,8.63
2023-04-01T09:05:43.369Z,8.10
2023-04-01T09:08:35.578Z,9.57
2023-04-01T09:11:17.992Z,8.35
2023-04-01T09:14:22.438Z,8.40
2023-04-01T09:17:36.872Z,8.57
2023-04-01T09:20:37.442Z,14.70
2023-04-01T09:23:29.524Z,8.77
2023-04-01T09:26:20.208Z,9.02
2023-04-01T09:29:03.470Z,9.43
2023-04-01T09:31:52.313Z,9.27
2023-04-01T09:34:57.001Z,8.50
2023-04-01T09:37:37.979Z,8.88
2023-04-01T09:40:19.986Z,8.32
2023-04-01T09:43:17.603Z,9.02
2023-04-01T09:46:09.413Z,10.25
2023-04-01T09:49:10.420Z,9.40
2023-04-01T09:51:52.990Z,10.35
2023-04-01T09:54:32.983Z,9.05
2023-04-01T09:57:24.672Z,9.27
2023-04-01T10:00:41.055Z,9.13
2023-04-01T10:03:50.828Z,9.20
2023-04-01T10:06:55.200Z,8.60
2023-04-01T10:10:12.180Z,9.45
2023-04-01T10:13:24.284Z,9.05
2023-04-01T10:16:32.467Z,9.88
2023-04-01T10:19:55.168Z,9.15
2023-04-01T10:23:08.006Z,9.50
2023-04-01T10:25:56.227Z,9.32
2023-04-01T10:28:50.066Z,8.82
2023-04-01T10:32:14.334Z,7.95
2023-04-01T10:35:46.225Z,8.15
2023-04-01T10:38:42.919Z,8.23
2023-04-01T10:41:48.433Z,7.97
2023-04-01T10:45:19.664Z,7.70
2023-04-01T10:48:52.069Z,7.72
2023-04-01T10:51:34.523Z,7.15
2023-04-01T10:54:23.471Z,7.45
2023-04-01T10:57:35.813Z,7.27
2023-04-01T11:01:09.893Z,6.38
2023-04-01T11:04:34.197Z,5.97
2023-04-01T11:08:06.513Z,5.28
2023-04-01T11:11:19.710Z,5.68
2023-04-01T11:14:19.982Z,6.25
2023-04-01T11:17:15.960Z,5.72
2023-04-01T11:20:17.090Z,4.97
2023-04-01T11:23:01.419Z,4.50
2023-04-01T11:26:06.181Z,5.20
2023-04-01T11:29:32.657Z,5.10
2023-04-01T11:32:28.080Z,5.20
2023-04-01T11:35:14.862Z,4.50
2023-04-01T11:37:52.106Z,4.93
2023-04-01T11:41:09.599Z,4.57
2023-04-01T11:44:23.646Z,4.95
2023-04-01T11:47:26.962Z,3.33
2023-04-01T11:50:16.860Z,3.95
2023-04-01T11:53:21.496Z,3.90
2023-04-01T11:56:01.978Z,5.32
2023-04-01T11:59:01.192Z,4.35
2023-04-01T12:01:45.699Z,4.32
2023-04-01T12:04:42.609Z,3.72
2023-04-01T12:07:21.511Z,4.00
2023-04-01T12:09:58.580Z,3.72
2023-04-01T12:12:47.729Z,4.28
2023-04-01T12:15:31.498Z,3.90
2023-04-01T12:18:13.027Z,4.07
2023-04-01T12:20:51.301Z,3.53
2023-04-01T12:23:55.572Z,3.75
2023-04-01T12:26:58.335Z,3.78
2023-04-01T12:29:55.928Z,3.90
2023-04-01T12:32:34.285Z,4.07
2023-04-01T12:35:18.461Z,3.80
2023-04-01T12:37:55.449Z,3.90
2023-04-01T12:40:38.240Z,3.85
2023-04-01T12:43:31.149Z,4.15
2023-04-01T12:46:12.595Z,4.38
2023-04-01T12:49:18.778Z,4.35
2023-04-01T12:52:05.785Z,4.05
2023-04-01T12:55:10.227Z,4.28
2023-04-01T12:58:14.554Z,4.18
2023-04-01T13:01:00.525Z,3.92
2023-04-01T13:03:51.092Z,4.25
2023-04-01T13:06:32.493Z,4.30
2023-04-01T13:09:18.018Z,4.32
2023-04-01T13:15:09.813Z,4.47
2023-04-01T13:17:48.574Z,4.80
2023-04-01T13:20:27.349Z,5.25
2023-04-01T13:23:11.622Z,4.63
2023-04-01T13:25:52.512Z,4.68
2023-04-01T13:28:29.209Z,4.00
2023-04-01T13:31:05.159Z,4.00
2023-04-01T13:33:44.698Z,4.63
2023-04-01T13:36:23.727Z,4.18
2023-04-01T13:39:13.313Z,3.78
2023-04-01T13:41:57.250Z,3.30
2023-04-01T13:44:35.961Z,3.78
2023-04-01T13:47:26.840Z,4.10
2023-04-01T13:50:26.215Z,3.63
2023-04-01T13:53:13.613Z,4.20
2023-04-01T13:55:54.614Z,4.07
2023-04-01T13:58:48.467Z,3.70
2023-04-01T14:01:26.216Z,3.90
2023-04-01T14:04:15.501Z,4.35
2023-04-01T14:06:59.068Z,4.13
2023-04-01T14:09:47.869Z,4.57
2023-04-01T14:12:30.127Z,4.75
2023-04-01T14:15:25.607Z,5.15
2023-04-01T14:20:42.697Z,5.32
2023-04-01T14:23:45.045Z,5.35
2023-04-01T14:26:31.137Z,5.43
2023-04-01T14:29:12.394Z,4.53
2023-04-01T14:32:08.932Z,4.50
2023-04-01T14:34:54.255Z,3.95
2023-04-01T14:37:40.035Z,4.10
2023-04-01T14:40:24.350Z,4.20
2023-04-01T14:43:13.020Z,4.40
2023-04-01T14:45:57.580Z,3.90
2023-04-01T14:48:34.493Z,4.40
2023-04-01T14:51:12.019Z,3.75
2023-04-01T14:53:47.063Z,4.13
2023-04-01T14:56:43.083Z,4.25
2023-04-01T15:01:49.539Z,4.65
2023-04-01T15:04:46.571Z,4.93
2023-04-01T15:07:35.181Z,5.18
2023-04-01T15:10:15.107Z,4.78
2023-04-01T15:12:53.564Z,4.72
2023-04-01T15:15:34.324Z,4.70
2023-04-01T15:18:24.311Z,4.38
2023-04-01T15:21:09.092Z,4.55
2023-04-01T15:23:48.934Z,4.30
2023-04-01T15:26:31.375Z,4.22
2023-04-01T15:29:15.979Z,4.70
2023-04-01T15:31:54.075Z,5.27
2023-04-01T15:34:34.346Z,5.25
2023-04-01T15:37:14.202Z,5.47
2023-04-01T15:39:54.851Z,6.22
2023-04-01T15:42:40.887Z,5.78
2023-04-01T15:45:36.324Z,6.05
2023-04-01T15:48:24.991Z,6.53
2023-04-01T15:51:13.073Z,6.28
2023-04-01T15:54:26.205Z,6.55
2023-04-01T15:57:08.197Z,6.50
2023-04-01T15:59:54.311Z,9.88
2023-04-01T16:02:33.590Z,6.30
2023-04-01T16:05:12.090Z,7.00
2023-04-01T16:07:57.016Z,7.20
2023-04-01T16:10:40.575Z,6.40
2023-04-01T16:13:30.759Z,7.05
2023-04-01T16:16:12.135Z,7.22
2023-04-01T16:19:00.831Z,7.50
2023-04-01T16:21:46.054Z,8.05
2023-04-01T16:24:24.576Z,8.07
2023-04-01T16:27:00.118Z,9.13
2023-04-01T16:29:38.541Z,9.00
2023-04-01T16:32:39.923Z,9.68
2023-04-01T16:35:29.382Z,9.50
2023-04-01T16:38:07.843Z,9.98
2023-04-01T16:41:01.356Z,9.30
2023-04-01T16:43:41.085Z,10.02
2023-04-01T16:46:36.496Z,10.65
2023-04-01T16:49:26.587Z,10.40
2023-04-01T16:52:00.114Z,10.45
2023-04-01T16:54:36.323Z,9.30
2023-04-01T16:57:18.640Z,10.23
2023-04-01T16:59:56.380Z,10.38
2023-04-01T17:02:29.581Z,9.82
2023-04-01T17:05:04.203Z,9.60
2023-04-01T17:07:46.709Z,9.80
2023-04-01T17:10:46.175Z,9.50
2023-04-01T17:13:43.212Z,9.15
2023-04-01T17:16:41.918Z,9.30
2023-04-01T17:19:26.493Z,9.20
2023-04-01T17:22:06.791Z,8.75
2023-04-01T17:24:53.981Z,8.57
2023-04-01T17:27:38.717Z,9.52
2023-04-01T17:30:36.357Z,9.23
2023-04-01T17:33:39.820Z,8.35
2023-04-01T17:36:19.375Z,7.93
2023-04-01T17:39:02.506Z,8.35
2023-04-01T17:41:43.686Z,8.27
2023-04-01T17:44:24.132Z,8.68
2023-04-01T17:47:18.320Z,8.75
2023-04-01T17:49:57.490Z,7.90
2023-04-01T17:52:33.210Z,8.15
2023-04-01T17:55:31.418Z,8.35
2023-04-01T17:58:06.358Z,8.57
2023-04-01T18:00:54.141Z,8.88
2023-04-01T18:03:52.963Z,9.15
2023-04-01T18:06:37.263Z,8.88
2023-04-01T18:09:19.057Z,9.00
2023-04-01T18:12:00.881Z,9.27
2023-04-01T18:14:53.072Z,9.30
2023-04-01T18:17:42.844Z,9.50
2023-04-01T18:20:30.001Z,10.05
2023-04-01T18:23:05.152Z,8.82
2023-04-01T18:25:40.926Z,9.90
2023-04-01T18:28:23.549Z,9.05
2023-04-01T18:30:56.980Z,9.98
2023-04-01T18:33:33.696Z,10.52
2023-04-01T18:36:15.707Z,9.50
2023-04-01T18:38:54.726Z,9.73
2023-04-01T18:41:36.436Z,9.88
2023-04-01T18:44:26.370Z,10.02
2023-04-01T18:47:05.614Z,9.95
2023-04-01T18:49:45.838Z,9.68
2023-04-01T18:52:22.032Z,9.45
2023-04-01T18:55:11.318Z,9.57
2023-04-01T18:57:46.640Z,10.00
2023-04-01T19:00:23.344Z,10.10
2023-04-01T19:02:59.622Z,9.77
2023-04-01T19:05:34.977Z,10.95
2023-04-01T19:10:53.095Z,9.98
2023-04-01T19:13:29.430Z,9.73
2023-04-01T19:16:08.524Z,9.55
2023-04-01T19:18:56.481Z,9.82
2023-04-01T19:21:30.214Z,9.68
2023-04-01T19:24:36.021Z,9.13
2023-04-01T19:27:17.738Z,9.15
2023-04-01T19:30:04.896Z,10.15
2023-04-01T19:32:50.905Z,9.90
2023-04-01T19:35:36.259Z,9.98
2023-04-01T19:38:14.310Z,9.95
2023-04-01T19:40:55.391Z,9.73
2023-04-01T19:43:49.513Z,10.20
2023-04-01T19:46:27.445Z,10.20
2023-04-01T19:49:22.139Z,8.40
2023-04-01T19:51:57.948Z,10.15
2023-04-01T19:54:37.386Z,9.50
2023-04-01T19:57:17.948Z,8.32
2023-04-01T20:00:05.835Z,10.35
2023-04-01T20:03:00.820Z,10.20
2023-04-01T20:06:02.407Z,11.05
2023-04-01T20:08:40.238Z,10.88
2023-04-01T20:11:20.857Z,11.23
2023-04-01T20:14:00.776Z,11.32
2023-04-01T20:16:53.140Z,12.20
2023-04-01T20:19:32.139Z,12.30
2023-04-01T20:22:04.222Z,10.75
2023-04-01T20:24:37.701Z,10.23
2023-04-01T20:27:17.724Z,9.95
2023-04-01T20:30:15.528Z,9.60
2023-04-01T20:33:08.077Z,10.43
2023-04-01T20:36:04.407Z,10.45
2023-04-01T20:39:00.752Z,9.57
2023-04-01T20:41:43.132Z,9.98
2023-04-01T20:44:15.577Z,9.90
2023-04-01T20:46:51.703Z,10.07
2023-04-01T20:49:42.400Z,9.45
2023-04-01T20:52:24.591Z,8.90
2023-04-01T20:55:22.430Z,9.45
2023-04-01T20:58:07.721Z,9.25
2023-04-01T21:00:55.390Z,10.73
2023-04-01T21:03:36.748Z,9.20
2023-04-01T21:06:39.284Z,10.55
2023-04-01T21:09:37.042Z,9.13
2023-04-01T21:15:05.558Z,8.68
2023-04-01T21:17:52.964Z,9.38
2023-04-01T21:20:37.369Z,9.88
2023-04-01T21:23:21.443Z,8.93
2023-04-01T21:26:05.667Z,9.63
2023-04-01T21:28:53.111Z,8.55
2023-04-01T21:31:33.992Z,9.98
2023-04-01T21:34:18.141Z,9.98
2023-04-01T21:37:03.371Z,9.18
2023-04-01T21:39:52.557Z,10.18
2023-04-01T21:42:34.807Z,9.68
2023-04-01T21:45:31.544Z,9.32
2023-04-01T21:48:26.031Z,9.35
2023-04-01T21:51:28.826Z,9.60
2023-04-01T21:54:38.553Z,8.93
2023-04-01T21:57:52.570Z,9.18
2023-04-01T22:00:26.392Z,9.93
2023-04-01T22:03:30.494Z,9.63
2023-04-01T22:06:10.895Z,9.68
2023-04-01T22:09:04.375Z,10.23
2023-04-01T22:11:46.061Z,9.70
2023-04-01T22:14:22.550Z,10.38
2023-04-01T22:16:58.943Z,10.40
2023-04-01T22:19:37.597Z,10.18
2023-04-01T22:22:15.777Z,10.65
2023-04-01T22:24:57.819Z,11.65
2023-04-01T22:27:33.307Z,10.50
2023-04-01T22:30:14.326Z,10.82
2023-04-01T22:32:48.122Z,10.63
2023-04-01T22:35:38.057Z,10.48
2023-04-01T22:38:20.160Z,11.00
2023-04-01T22:40:58.896Z,11.18
2023-04-01T22:43:38.492Z,10.82
2023-04-01T22:46:28.940Z,10.55
2023-04-01T22:49:07.220Z,11.93
2023-04-01T22:51:48.163Z,11.07
2023-04-01T22:54:25.245Z,10.88
2023-04-01T22:56:58.238Z,10.13
2023-04-01T22:59:34.570Z,10.68
2023-04-01T23:02:11.446Z,10.40
2023-04-01T23:04:44.315Z,10.52
2023-04-01T23:07:48.142Z,10.50
2023-04-01T23:10:25.094Z,9.95
2023-04-01T23:12:57.601Z,9.73
2023-04-01T23:15:27.363Z,9.25
2023-04-01T23:18:20.384Z,10.27
2023-04-01T23:23:46.529Z,9.68
2023-04-01T23:26:22.840Z,10.43
2023-04-01T23:28:54.249Z,9.45
2023-04-01T23:31:33.802Z,9.48
2023-04-01T23:34:22.731Z,10.00
2023-04-01T23:36:55.822Z,10.73
2023-04-01T23:39:29.109Z,10.43
2023-04-01T23:42:01.854Z,9.52
2023-04-01T23:44:35.300Z,10.85
2023-04-01T23:47:06.872Z,10.25
2023-04-01T23:49:44.310Z,11.65
2023-04-01T23:52:17.177Z,10.30
2023-04-01T23:54:51.772Z,11.13
2023-04-01T23:57:26.462Z,10.95
